Terminal Aerodrome Forecast
Issued by NWS Jacksonville, FL

Home | Current Version | Previous Version | Text Only | Print | Product List | Glossary On
Versions: 1 2 3 4 5 6 7 8 9 10 11 12 13 14 15 16 17 18 19 20 21 22 23 24 25 26
000
FTUS42 KJAX 291120
TAFGNV
TAF
KGNV 291120Z 2912/3012 00000KT P6SM SCT015 BKN050
      TEMPO 2912/2914 BKN015
     FM291400 34005KT P6SM SCT030
     FM291800 29008KT P6SM VCSH BKN040
      TEMPO 2919/2921 3SM TSRA OVC025CB
     FM300000 24005KT P6SM SCT040 BKN100=

USA.gov is the U.S. government's official web portal to all federal, state and local government web resources and services.